createdAt,value
2022-08-17T00:02:26.861Z,100991.25
2022-08-17T00:05:33.254Z,100995.78
2022-08-17T00:08:38.467Z,100987.72
2022-08-17T00:12:40.576Z,100990.47
2022-08-17T00:15:10.537Z,100988.78
2022-08-17T00:19:01.792Z,100993.28
2022-08-17T00:22:29.621Z,100994.16
2022-08-17T00:25:05.862Z,100992.41
2022-08-17T00:28:08.910Z,100991.66
2022-08-17T00:31:13.505Z,100989.94
2022-08-17T00:34:18.011Z,101001.75
2022-08-17T00:37:20.991Z,100988.44
2022-08-17T00:40:24.810Z,100995.63
2022-08-17T00:43:33.514Z,100991.16
2022-08-17T00:46:40.440Z,100998.31
2022-08-17T00:49:45.182Z,100995.78
2022-08-17T00:52:53.628Z,100995.00
2022-08-17T00:55:56.942Z,100989.66
2022-08-17T00:59:00.151Z,100992.34
2022-08-17T01:02:05.058Z,100988.69
2022-08-17T01:05:13.619Z,100990.63
2022-08-17T01:08:19.778Z,100996.19
2022-08-17T01:11:22.845Z,101002.53
2022-08-17T01:14:27.466Z,101008.09
2022-08-17T01:17:30.580Z,101008.09
2022-08-17T01:20:47.848Z,101008.09
2022-08-17T01:23:52.827Z,101003.59
2022-08-17T01:26:56.721Z,101009.78
2022-08-17T01:30:04.989Z,101011.72
2022-08-17T01:33:28.671Z,101016.25
2022-08-17T01:36:31.852Z,101016.44
2022-08-17T01:39:43.523Z,101022.84
2022-08-17T01:42:51.587Z,101029.97
2022-08-17T01:46:03.509Z,101018.38
2022-08-17T01:49:08.047Z,101022.03
2022-08-17T01:52:12.858Z,101021.16
2022-08-17T01:55:25.854Z,101015.78
2022-08-17T01:58:30.278Z,101014.03
2022-08-17T02:01:34.849Z,101005.06
2022-08-17T02:04:37.961Z,101014.81
2022-08-17T02:07:59.872Z,101013.00
2022-08-17T02:11:08.934Z,101011.28
2022-08-17T02:14:15.589Z,101015.78
2022-08-17T02:17:18.637Z,101011.38
2022-08-17T02:20:41.246Z,101015.03
2022-08-17T02:23:48.702Z,101015.03
2022-08-17T02:26:53.046Z,101015.09
2022-08-17T02:29:56.113Z,101015.09
2022-08-17T02:32:59.095Z,101014.34
2022-08-17T02:36:08.980Z,101014.25
2022-08-17T02:39:13.359Z,101004.59
2022-08-17T02:42:17.910Z,101010.81
2022-08-17T02:45:24.406Z,101013.50
2022-08-17T02:48:30.408Z,101021.56
2022-08-17T02:51:35.312Z,101015.31
2022-08-17T02:54:39.706Z,101021.63
2022-08-17T02:57:46.553Z,101025.19
2022-08-17T03:00:49.556Z,101016.38
2022-08-17T03:03:52.628Z,101016.38
2022-08-17T03:06:55.683Z,101019.06
2022-08-17T03:10:00.259Z,101020.88
2022-08-17T03:13:05.625Z,101018.19
2022-08-17T03:16:09.867Z,101021.75
2022-08-17T03:19:12.994Z,101018.28
2022-08-17T03:22:47.939Z,101017.53
2022-08-17T03:25:43.422Z,101006.91
2022-08-17T03:28:48.631Z,101018.59
2022-08-17T03:31:52.382Z,101026.75
2022-08-17T03:35:00.263Z,101016.00
2022-08-17T03:38:03.265Z,101009.88
2022-08-17T03:41:06.959Z,101018.88
2022-08-17T03:44:11.429Z,101005.47
2022-08-17T03:47:31.745Z,101016.19
2022-08-17T03:50:52.202Z,101001.91
2022-08-17T03:54:15.099Z,101008.16
2022-08-17T03:57:19.203Z,101003.75
2022-08-17T04:00:24.034Z,101002.78
2022-08-17T04:03:27.060Z,101014.50
2022-08-17T04:06:30.063Z,101005.69
2022-08-17T04:09:33.055Z,101012.97
2022-08-17T04:12:45.161Z,101013.03
2022-08-17T04:15:49.615Z,101015.84
2022-08-17T04:18:52.983Z,101016.81
2022-08-17T04:21:56.079Z,101017.00
2022-08-17T04:24:59.038Z,101021.59
2022-08-17T04:28:03.083Z,101024.38
2022-08-17T04:31:07.707Z,101014.59
2022-08-17T04:34:11.878Z,101018.25
2022-08-17T04:37:14.867Z,101025.44
2022-08-17T04:40:36.762Z,101023.69
2022-08-17T04:43:41.543Z,101032.72
2022-08-17T04:46:48.032Z,101029.28
2022-08-17T04:49:51.011Z,101043.44
2022-08-17T04:52:54.201Z,101038.06
2022-08-17T04:55:58.291Z,101040.00
2022-08-17T04:59:05.041Z,101037.38
2022-08-17T05:02:09.556Z,101052.53
2022-08-17T05:05:12.627Z,101040.94
2022-08-17T05:08:17.629Z,101053.47
2022-08-17T05:11:21.218Z,101058.00
2022-08-17T05:14:33.426Z,101055.31
2022-08-17T05:17:38.123Z,101056.16
2022-08-17T05:20:41.973Z,101059.59
2022-08-17T05:23:49.204Z,101064.91
2022-08-17T05:27:01.366Z,101061.25
2022-08-17T05:30:08.255Z,101068.34
2022-08-17T05:33:15.059Z,101075.41
2022-08-17T05:36:41.684Z,101079.06
2022-08-17T05:39:41.747Z,101086.25
2022-08-17T05:42:44.902Z,101082.69
2022-08-17T05:45:56.450Z,101085.38
2022-08-17T05:49:05.438Z,101084.59
2022-08-17T05:52:26.282Z,101089.97
2022-08-17T05:55:36.094Z,101080.13
2022-08-17T05:58:50.374Z,101088.06
2022-08-17T06:01:59.858Z,101085.31
2022-08-17T06:05:22.734Z,101085.19
2022-08-17T06:08:33.859Z,101093.25
2022-08-17T06:11:40.291Z,101094.94
2022-08-17T06:14:59.419Z,101096.69
2022-08-17T06:18:06.631Z,101097.56
2022-08-17T06:21:16.823Z,101103.75
2022-08-17T06:24:29.370Z,101098.41
2022-08-17T06:27:37.045Z,101098.41
2022-08-17T06:30:59.238Z,101100.13
2022-08-17T06:34:07.361Z,101099.16
2022-08-17T06:37:22.892Z,101108.06
2022-08-17T06:40:45.635Z,101098.22
2022-08-17T06:44:00.733Z,101099.09
2022-08-17T06:47:28.512Z,101102.66
2022-08-17T06:50:36.862Z,101101.78
2022-08-17T06:53:45.539Z,101105.31
2022-08-17T06:56:55.257Z,101109.81
2022-08-17T07:00:03.027Z,101106.25
2022-08-17T07:03:14.108Z,101110.69
2022-08-17T07:06:20.295Z,101110.69
2022-08-17T07:09:29.809Z,101110.69
2022-08-17T07:12:40.198Z,101108.00
2022-08-17T07:15:44.206Z,101110.69
2022-08-17T07:18:50.655Z,101107.03
2022-08-17T07:21:58.404Z,101110.59
2022-08-17T07:25:07.867Z,101108.78
2022-08-17T07:28:10.872Z,101107.78
2022-08-17T07:31:17.378Z,101100.72
2022-08-17T07:34:20.592Z,101099.75
2022-08-17T07:37:23.526Z,101102.44
2022-08-17T07:40:33.431Z,101105.97
2022-08-17T07:43:46.507Z,101112.22
2022-08-17T07:47:08.706Z,101105.97
2022-08-17T07:50:27.582Z,101105.13
2022-08-17T07:53:32.067Z,101104.16
2022-08-17T07:56:44.575Z,101102.31
2022-08-17T08:00:16.550Z,101105.97
2022-08-17T08:03:27.231Z,101093.44
2022-08-17T08:06:32.250Z,101101.50
2022-08-17T08:09:42.142Z,101104.06
2022-08-17T08:12:47.786Z,101104.94
2022-08-17T08:15:54.608Z,101104.94
2022-08-17T08:18:59.754Z,101099.56
2022-08-17T08:22:11.130Z,101109.31
2022-08-17T08:25:28.647Z,101098.59
2022-08-17T08:28:43.426Z,101108.47
2022-08-17T08:31:58.838Z,101106.63
2022-08-17T08:35:06.666Z,101104.81
2022-08-17T08:38:20.038Z,101113.75
2022-08-17T08:41:35.657Z,101107.50
2022-08-17T08:45:01.278Z,101111.91
2022-08-17T08:48:46.146Z,101112.78
2022-08-17T08:51:53.136Z,101119.88
2022-08-17T08:55:07.611Z,101114.50
2022-08-17T08:58:31.815Z,101114.50
2022-08-17T09:01:50.690Z,101108.28
2022-08-17T09:05:14.281Z,101106.47
2022-08-17T09:08:28.994Z,101106.47
2022-08-17T09:12:02.779Z,101107.34
2022-08-17T09:15:14.070Z,101101.97
2022-08-17T09:19:03.191Z,101097.44
2022-08-17T09:21:54.260Z,101101.09
2022-08-17T09:25:04.266Z,101101.84
2022-08-17T09:28:16.788Z,101104.53
2022-08-17T09:31:23.942Z,101099.19
2022-08-17T09:34:34.594Z,101092.84
2022-08-17T09:37:48.983Z,101092.84
2022-08-17T09:40:58.370Z,101088.44
2022-08-17T09:44:22.641Z,101084.78
2022-08-17T09:47:31.729Z,101090.16
2022-08-17T09:51:01.624Z,101086.53
2022-08-17T09:54:36.883Z,101090.16
2022-08-17T09:57:47.730Z,101083.84
2022-08-17T10:00:58.573Z,101086.53
2022-08-17T10:04:20.006Z,101098.13
2022-08-17T10:07:33.619Z,101090.09
2022-08-17T10:10:52.203Z,101086.53
2022-08-17T10:14:36.039Z,101089.09
2022-08-17T10:17:36.604Z,101088.22
2022-08-17T10:20:48.119Z,101084.59
2022-08-17T10:24:15.958Z,101078.38
2022-08-17T10:27:21.442Z,101081.94
2022-08-17T10:30:27.790Z,101078.25
2022-08-17T10:33:50.956Z,101083.63
2022-08-17T10:37:02.537Z,101076.44
2022-08-17T10:40:23.643Z,101069.38
2022-08-17T10:43:38.442Z,101075.59
2022-08-17T10:46:57.523Z,101077.31
2022-08-17T10:50:35.343Z,101083.56
2022-08-17T10:53:52.561Z,101085.25
2022-08-17T10:56:58.017Z,101087.09
2022-08-17T11:00:01.476Z,101079.91
2022-08-17T11:03:19.730Z,101084.31
2022-08-17T11:06:33.175Z,101068.22
2022-08-17T11:09:55.821Z,101081.63
2022-08-17T11:13:09.290Z,101081.63
2022-08-17T11:16:36.318Z,101080.78
2022-08-17T11:20:07.276Z,101085.19
2022-08-17T11:23:36.551Z,101090.56
2022-08-17T11:26:46.687Z,101082.50
2022-08-17T11:30:01.287Z,101075.41
2022-08-17T11:33:52.972Z,101077.91
2022-08-17T11:37:19.162Z,101076.16
2022-08-17T11:40:37.473Z,101074.25
2022-08-17T11:44:00.392Z,101066.19
2022-08-17T11:47:42.579Z,101068.88
2022-08-17T11:51:12.744Z,101056.44
2022-08-17T11:54:37.603Z,101066.19
2022-08-17T11:58:01.519Z,101061.69
2022-08-17T12:01:06.924Z,101054.59
2022-08-17T12:04:27.927Z,101060.81
2022-08-17T12:07:34.118Z,101062.56
2022-08-17T12:10:49.668Z,101054.50
2022-08-17T12:13:58.191Z,101058.03
2022-08-17T12:17:04.160Z,101053.53
2022-08-17T12:20:16.205Z,101057.09
2022-08-17T12:23:25.694Z,101061.47
2022-08-17T12:26:33.035Z,101056.97
2022-08-17T12:29:38.809Z,101051.63
2022-08-17T12:32:47.617Z,101041.75
2022-08-17T12:35:59.695Z,101048.94
2022-08-17T12:39:12.899Z,101050.66
2022-08-17T12:42:24.308Z,101039.06
2022-08-17T12:45:30.892Z,101043.56
2022-08-17T12:48:36.143Z,101042.63
2022-08-17T12:51:45.654Z,101043.56
2022-08-17T12:55:00.484Z,101042.63
2022-08-17T12:58:03.652Z,101044.31
2022-08-17T13:01:09.844Z,101033.59
2022-08-17T13:04:15.226Z,101033.50
2022-08-17T13:07:43.126Z,101025.47
2022-08-17T13:10:56.627Z,101020.94
2022-08-17T13:14:11.064Z,101026.31
2022-08-17T13:17:14.282Z,101029.84
2022-08-17T13:20:17.426Z,101022.78
2022-08-17T13:23:22.138Z,101011.94
2022-08-17T13:26:30.450Z,101018.25
2022-08-17T13:29:35.467Z,101012.88
2022-08-17T13:32:44.033Z,101011.94
2022-08-17T13:35:50.476Z,101018.16
2022-08-17T13:39:07.753Z,101017.31
2022-08-17T13:42:33.238Z,101003.78
2022-08-17T13:45:51.942Z,101010.88
2022-08-17T13:49:01.749Z,101015.38
2022-08-17T13:52:05.322Z,101016.25
2022-08-17T13:55:18.599Z,101017.09
2022-08-17T13:58:24.979Z,101006.34
2022-08-17T14:01:33.689Z,101000.03
2022-08-17T14:04:39.775Z,101000.97
2022-08-17T14:07:42.719Z,101008.19
2022-08-17T14:10:52.259Z,101008.09
2022-08-17T14:13:55.274Z,101007.22
2022-08-17T14:16:58.574Z,101006.34
2022-08-17T14:20:01.683Z,101007.22
2022-08-17T14:23:04.813Z,101015.28
2022-08-17T14:26:10.476Z,101012.47
2022-08-17T14:29:15.528Z,101005.28
2022-08-17T14:32:20.965Z,100999.94
2022-08-17T14:35:25.196Z,100998.97
2022-08-17T14:38:28.282Z,100994.56
2022-08-17T14:41:32.733Z,100993.63
2022-08-17T14:44:38.519Z,100986.50
2022-08-17T14:47:42.762Z,100990.06
2022-08-17T14:50:46.268Z,100990.06
2022-08-17T14:53:49.595Z,100993.63
2022-08-17T14:57:00.882Z,100996.28
2022-08-17T15:00:17.674Z,100983.81
2022-08-17T15:03:20.791Z,100992.75
2022-08-17T15:06:24.759Z,100989.13
2022-08-17T15:09:27.819Z,100986.44
2022-08-17T15:12:36.614Z,100992.56
2022-08-17T15:15:40.367Z,100981.06
2022-08-17T15:18:43.674Z,100986.31
2022-08-17T15:21:47.008Z,100989.88
2022-08-17T15:24:50.094Z,100996.06
2022-08-17T15:27:55.968Z,100996.19
2022-08-17T15:30:59.065Z,100991.81
2022-08-17T15:34:02.141Z,100986.44
2022-08-17T15:37:05.310Z,100989.88
2022-08-17T15:40:10.286Z,100986.44
2022-08-17T15:43:17.443Z,100995.31
2022-08-17T15:46:22.421Z,100984.50
2022-08-17T15:49:25.477Z,100982.66
2022-08-17T15:52:30.807Z,100988.03
2022-08-17T15:55:35.317Z,100991.56
2022-08-17T15:58:40.122Z,101004.13
2022-08-17T16:02:21.606Z,100993.31
2022-08-17T16:05:10.054Z,100988.88
2022-08-17T16:08:18.546Z,100988.03
2022-08-17T16:11:23.946Z,100978.16
2022-08-17T16:14:32.407Z,100968.41
2022-08-17T16:17:39.259Z,100970.09
2022-08-17T16:20:44.109Z,100970.09
2022-08-17T16:23:47.442Z,100969.16
2022-08-17T16:26:50.452Z,100982.56
2022-08-17T16:29:55.462Z,100974.53
2022-08-17T16:33:01.016Z,100967.31
2022-08-17T16:36:04.451Z,100975.34
2022-08-17T16:39:07.419Z,100967.22
2022-08-17T16:42:24.511Z,100975.28
2022-08-17T16:45:40.212Z,100974.41
2022-08-17T16:48:44.439Z,100980.66
2022-08-17T16:51:48.411Z,100983.34
2022-08-17T16:54:51.813Z,100976.22
2022-08-17T16:57:54.811Z,100968.19
2022-08-17T17:00:59.743Z,100968.19
2022-08-17T17:04:06.192Z,100974.41
2022-08-17T17:07:34.855Z,100973.53
2022-08-17T17:10:41.459Z,100975.28
2022-08-17T17:13:49.919Z,100977.97
2022-08-17T17:17:01.056Z,100979.66
2022-08-17T17:20:09.557Z,100970.75
2022-08-17T17:23:24.751Z,100967.22
2022-08-17T17:26:44.966Z,100964.44
2022-08-17T17:30:03.299Z,100963.56
2022-08-17T17:33:12.053Z,100964.53
2022-08-17T17:36:25.494Z,100964.53
2022-08-17T17:39:36.805Z,100968.94
2022-08-17T17:42:43.295Z,100970.75
2022-08-17T17:45:53.259Z,100972.59
2022-08-17T17:48:58.070Z,100969.03
2022-08-17T17:52:14.419Z,100969.91
2022-08-17T17:55:41.202Z,100970.75
2022-08-17T17:58:51.188Z,100987.72
2022-08-17T18:02:01.819Z,100982.34
2022-08-17T18:05:15.732Z,100985.03
2022-08-17T18:08:36.094Z,100982.34
2022-08-17T18:11:58.227Z,100982.34
2022-08-17T18:15:25.771Z,100986.03
2022-08-17T18:18:37.780Z,100998.47
2022-08-17T18:21:46.440Z,100992.22
2022-08-17T18:24:55.787Z,100992.22
2022-08-17T18:27:58.844Z,100991.38
2022-08-17T18:31:09.244Z,100994.06
2022-08-17T18:34:51.817Z,100995.00
2022-08-17T18:37:52.608Z,100994.06
2022-08-17T18:41:02.664Z,101002.13
2022-08-17T18:44:17.293Z,101008.31
2022-08-17T18:47:22.252Z,101004.69
2022-08-17T18:50:29.573Z,101001.16
2022-08-17T18:53:40.759Z,101006.50
2022-08-17T18:56:49.171Z,101012.84
2022-08-17T18:59:52.302Z,101023.59
2022-08-17T19:02:57.493Z,101021.84
2022-08-17T19:06:19.027Z,101026.28
2022-08-17T19:09:34.990Z,101028.97
2022-08-17T19:12:43.099Z,101023.59
2022-08-17T19:16:12.087Z,101022.72
2022-08-17T19:19:20.023Z,101022.72
2022-08-17T19:22:30.739Z,101034.34
2022-08-17T19:25:40.337Z,101022.72
2022-08-17T19:28:48.923Z,101022.72
2022-08-17T19:31:55.202Z,101026.28
2022-08-17T19:35:00.586Z,101012.84
2022-08-17T19:38:13.021Z,101022.63
2022-08-17T19:41:23.986Z,101027.22
2022-08-17T19:44:41.184Z,101025.41
2022-08-17T19:47:55.541Z,101018.22
2022-08-17T19:51:07.219Z,101013.91
2022-08-17T19:54:20.341Z,101017.47
2022-08-17T19:57:34.934Z,101015.63
2022-08-17T20:00:47.862Z,101020.16
2022-08-17T20:03:57.318Z,101018.31
2022-08-17T20:07:04.425Z,101010.25
2022-08-17T20:10:12.351Z,101009.41
2022-08-17T20:13:19.834Z,101018.22
2022-08-17T20:16:36.947Z,101020.03
2022-08-17T20:19:51.879Z,101011.13
2022-08-17T20:23:06.375Z,101012.09
2022-08-17T20:26:19.591Z,101015.63
2022-08-17T20:29:39.824Z,101012.09
2022-08-17T20:32:53.079Z,101011.13
2022-08-17T20:36:16.006Z,101008.56
2022-08-17T20:39:34.052Z,101020.16
2022-08-17T20:42:37.985Z,101013.91
2022-08-17T20:46:08.846Z,101014.78
2022-08-17T20:49:22.427Z,101013.91
2022-08-17T20:52:52.235Z,101012.94
2022-08-17T20:55:55.865Z,101012.09
2022-08-17T20:59:00.647Z,101014.78
2022-08-17T21:02:18.574Z,101007.56
2022-08-17T21:05:34.520Z,101010.25
2022-08-17T21:08:45.684Z,101009.41
2022-08-17T21:12:04.647Z,101003.19
2022-08-17T21:15:24.019Z,101009.41
2022-08-17T21:18:38.799Z,101019.28
2022-08-17T21:21:50.355Z,101011.22
2022-08-17T21:25:04.822Z,101011.22
2022-08-17T21:28:19.794Z,101014.78
2022-08-17T21:31:34.608Z,101017.47
2022-08-17T21:34:42.522Z,101015.63
2022-08-17T21:37:47.983Z,101015.63
2022-08-17T21:40:53.376Z,101022.84
2022-08-17T21:44:07.148Z,101026.34
2022-08-17T21:47:16.566Z,101029.16
2022-08-17T21:50:25.264Z,101030.88
2022-08-17T21:53:37.844Z,101021.84
2022-08-17T21:56:42.663Z,101025.53
2022-08-17T21:59:46.429Z,101030.78
2022-08-17T22:02:56.954Z,101032.59
2022-08-17T22:06:20.183Z,101021.00
2022-08-17T22:09:25.680Z,101027.22
2022-08-17T22:12:28.794Z,101029.91
2022-08-17T22:15:31.874Z,101027.22
2022-08-17T22:18:35.134Z,101028.09
2022-08-17T22:21:39.939Z,101024.44
2022-08-17T22:24:43.014Z,101030.78
2022-08-17T22:27:54.397Z,101035.16
2022-08-17T22:31:02.131Z,101032.47
2022-08-17T22:34:13.547Z,101039.69
2022-08-17T22:37:26.694Z,101037.03
2022-08-17T22:40:35.206Z,101039.69
2022-08-17T22:43:41.513Z,101042.38
2022-08-17T22:46:55.259Z,101039.69
2022-08-17T22:50:01.319Z,101043.22
2022-08-17T22:53:32.916Z,101037.97
2022-08-17T22:56:53.526Z,101045.06
2022-08-17T22:59:57.539Z,101040.53
2022-08-17T23:03:11.716Z,101037.84
2022-08-17T23:06:14.757Z,101041.41
2022-08-17T23:09:19.214Z,101046.78
2022-08-17T23:12:27.174Z,101052.16
2022-08-17T23:15:33.750Z,101039.69
2022-08-17T23:18:37.352Z,101053.97
2022-08-17T23:21:40.902Z,101039.69
2022-08-17T23:24:49.011Z,101028.97
2022-08-17T23:27:52.176Z,101033.34
2022-08-17T23:30:55.942Z,101034.34
2022-08-17T23:33:59.205Z,101032.59
2022-08-17T23:37:04.277Z,101028.09
2022-08-17T23:40:10.048Z,101023.59
2022-08-17T23:43:24.705Z,101023.59
2022-08-17T23:46:28.491Z,101019.94
2022-08-17T23:49:31.737Z,101018.22
2022-08-17T23:52:36.831Z,101015.53
2022-08-17T23:55:41.214Z,101010.25
2022-08-17T23:58:44.996Z,100998.56
